Latest Weather Observations for Wangaratta

IDV60801

Issued at 11:02 pm EDT Sunday 17 December 2017 (issued every 30 minutes, with the page automatically refreshed every 10 minutes)

About weather observations | Map of weather stations | Latest weather observations for VIC | Other Formats
Station Details ID: 082138 Name: WANGARATTA AERO Lat: -36.42 Lon: 146.31 Height: 152.6 m
Data from the previous 72 hours. | See also: Recent months at Wangaratta
Date/Time
EDT
Temp
°C
App
Temp
°C
Dew
Point
°C
Rel
Hum
%
Delta-T
°C
Wind Press
QNH
hPa
Press
MSL
hPa
Rain since
9am
mm
Dir  Spd
km/h
Gust
km/h
Spd
kts
Gust
kts
17/11:00pm 18.6 18.3 12.8 69 3.3 SE 6 7 3 4 1011.8 1011.3 0.0
17/10:30pm 20.6 21.6 13.3 63 4.2 CALM 0 0 0 0 1011.7 1011.2 0.0
17/10:00pm 21.4 21.8 13.6 61 4.5 SW 4 6 2 3 1011.9 1011.4 0.0
17/09:30pm 22.1 22.2 14.5 62 4.5 SSW 7 9 4 5 1011.5 1011.1 0.0
17/09:00pm 24.9 24.8 13.8 50 6.6 S 7 9 4 5 1011.2 1010.7 0.0
17/08:30pm 25.2 24.1 13.1 47 7.1 SSW 11 13 6 7 1011.5 1011.1 0.0
17/08:00pm 27.9 26.5 11.0 35 9.7 SSW 9 11 5 6 1011.5 1011.1 0.0
17/07:30pm 29.4 27.2 9.5 29 11.2 SSW 11 15 6 8 1011.2 1010.7 0.0
17/07:00pm 31.1 27.0 6.2 21 13.4 SSW 17 24 9 13 1011.3 1010.8 0.0
17/06:30pm 32.1 27.2 4.0 17 14.6 SW 19 22 10 12 1011.2 1010.7 0.0
17/06:00pm 32.7 28.5 3.6 16 15.1 SW 15 24 8 13 1010.8 1010.3 0.0
17/05:30pm 33.1 29.0 2.1 14 15.8 SW 13 19 7 10 1010.7 1010.2 0.0
17/05:00pm 33.2 30.0 4.9 17 15.1 SW 11 19 6 10 1010.7 1010.2 0.0
17/04:30pm 33.8 29.4 4.5 16 15.5 SSW 17 24 9 13 1011.0 1010.5 0.0
17/04:00pm 34.5 30.7 4.1 15 16.1 SW 13 22 7 12 1011.4 1010.9 0.0
17/03:30pm 33.6 30.0 5.2 17 15.2 SW 13 20 7 11 1011.5 1011.1 0.0
17/03:00pm 34.0 30.1 5.5 17 15.4 W 15 24 8 13 1011.7 1011.2 0.0
17/02:30pm 34.0 31.8 7.9 20 14.6 E 9 15 5 8 1011.9 1011.4 0.0
17/02:00pm 34.0 32.3 9.9 23 13.9 SW 9 17 5 9 1012.4 1011.9 0.0
17/01:30pm 32.7 30.5 9.5 24 13.3 SSW 11 17 6 9 1012.8 1012.3 0.0
17/01:00pm 32.1 30.0 9.6 25 12.8 WSW 11 17 6 9 1013.3 1012.8 0.0
17/12:30pm 32.8 29.9 8.3 22 13.7 WNW 13 22 7 12 1013.6 1013.1 0.0
17/12:00pm 32.1 30.2 11.8 29 12.0 NNW 13 19 7 10 1013.7 1013.2 0.0
17/11:30am 31.2 30.4 11.6 30 11.5 W 7 9 4 5 1013.9 1013.4 0.0
17/11:00am 30.2 29.3 11.2 31 11.0 NW 7 11 4 6 1014.1 1013.6 0.0
17/10:30am 29.2 29.0 11.7 34 10.2 ESE 4 9 2 5 1014.2 1013.7 0.0
17/10:00am 28.2 27.8 12.5 37 9.2 SSW 6 11 3 6 1014.5 1014.0 0.0
17/09:30am 27.1 26.9 13.1 42 8.3 ESE 6 13 3 7 1014.3 1013.8 0.0
17/09:00am 24.6 23.6 13.5 50 6.5 SSE 11 15 6 8 1014.4 1013.9 0.0
17/08:30am 23.1 22.7 14.1 57 5.3 S 9 15 5 8 1014.2 1013.7 0.0
17/08:00am 21.9 22.9 14.3 62 4.5 ENE 2 7 1 4 1014.0 1013.5 0.0
17/07:30am 19.6 19.6 14.2 71 3.1 SW 7 9 4 5 1013.8 1013.3 0.0
17/07:00am 17.5 18.8 14.0 80 2.0 CALM 0 0 0 0 1013.5 1013.0 0.0
17/06:30am 15.7 15.4 12.8 83 1.6 ENE 6 7 3 4 1013.1 1012.6 0.0
17/06:00am 15.2 14.8 13.1 87 1.2 S 7 9 4 5 1012.9 1012.4 0.0
17/05:30am 15.5 14.8 13.2 86 1.3 SSW 9 11 5 6 1012.7 1012.2 0.0
17/05:00am 14.7 13.5 12.7 88 1.1 SSW 11 11 6 6 1012.5 1012.0 0.0
17/04:30am 15.5 15.1 13.0 85 1.4 S 7 9 4 5 1012.4 1011.9 0.0
17/04:00am 17.2 16.9 13.3 78 2.2 SSE 7 9 4 5 1012.3 1011.8 0.0
17/03:30am 16.8 16.3 13.7 82 1.8 SSW 9 11 5 6 1012.4 1011.9 0.0
17/03:00am 16.5 15.9 13.6 83 1.6 SSW 9 11 5 6 1012.5 1012.0 0.0
17/02:30am 16.4 16.1 12.8 79 2.0 SSW 6 9 3 5 1012.6 1012.1 0.0
17/02:00am 17.8 17.6 13.5 76 2.5 SSW 7 9 4 5 1012.7 1012.2 0.0
17/01:30am 18.1 17.9 13.6 75 2.6 S 7 9 4 5 1012.9 1012.4 0.0
17/01:00am 17.7 17.1 13.6 77 2.3 SW 9 11 5 6 1013.1 1012.6 0.0
17/12:30am 19.3 18.8 13.7 70 3.2 S 9 13 5 7 1013.1 1012.6 0.0
17/12:00am 19.6 19.6 13.5 68 3.5 SSW 6 9 3 5 1013.0 1012.5 0.0
 
Date/Time
EDT
Temp
°C
App
Temp
°C
Dew
Point
°C
Rel
Hum
%
Delta-T
°C
Wind Press
QNH
hPa
Press
MSL
hPa
Rain since
9am
mm
Dir  Spd
km/h
Gust
km/h
Spd
kts
Gust
kts
16/11:30pm 20.7 20.2 12.7 60 4.6 S 7 9 4 5 1012.8 1012.3 0.0
16/11:00pm 21.8 21.4 12.9 57 5.1 SSW 7 9 4 5 1012.6 1012.1 0.0
16/10:30pm 21.2 20.6 13.4 61 4.5 SSW 9 11 5 6 1012.7 1012.2 0.0
16/10:00pm 21.7 21.3 12.5 56 5.2 SW 6 9 3 5 1012.5 1012.0 0.0
16/09:30pm 23.8 24.3 11.5 46 7.0 CALM 0 0 0 0 1012.2 1011.7 0.0
16/09:00pm 24.3 23.9 12.3 47 6.9 S 6 7 3 4 1012.0 1011.5 0.0
16/08:30pm 26.3 25.4 10.5 37 8.9 SW 6 7 3 4 1011.9 1011.4 0.0
16/08:00pm 27.7 26.4 10.0 33 10.0 SW 7 9 4 5 1011.8 1011.3 0.0
16/07:30pm 29.3 26.7 9.4 29 11.2 SW 13 22 7 12 1011.4 1010.9 0.0
16/07:00pm 32.0 27.4 8.3 23 13.3 SW 22 32 12 17 1011.2 1010.7 0.0
16/06:30pm 31.5 27.5 9.1 25 12.6 WSW 20 28 11 15 1011.0 1010.5 0.0
16/06:00pm 32.4 27.1 8.6 23 13.4 SW 26 35 14 19 1010.9 1010.4 0.0
16/05:30pm 32.6 27.9 9.4 24 13.2 SW 24 32 13 17 1010.8 1010.3 0.0
16/05:00pm 33.6 28.3 8.3 21 14.3 WSW 26 43 14 23 1011.0 1010.5 0.0
16/04:30pm 33.0 27.6 7.8 21 14.0 SW 26 41 14 22 1011.2 1010.7 0.0
16/04:00pm 32.8 28.4 7.6 21 14.0 WSW 20 32 11 17 1011.5 1011.1 0.0
16/03:30pm 32.3 28.3 6.5 20 14.0 WSW 17 24 9 13 1011.8 1011.3 0.0
16/03:00pm 32.7 28.5 7.5 21 14.0 WSW 19 30 10 16 1011.9 1011.4 0.0
16/02:30pm 33.2 29.9 7.9 21 14.1 WNW 15 28 8 15 1012.0 1011.5 0.0
16/02:00pm 33.3 30.0 6.6 19 14.6 NNW 13 32 7 17 1012.3 1011.8 0.0
16/01:30pm 32.4 29.1 6.6 20 14.1 NNW 13 24 7 13 1012.4 1011.9 0.0
16/01:00pm 32.6 28.5 6.0 19 14.4 SW 17 24 9 13 1012.7 1012.2 0.0
16/12:30pm 31.2 28.3 4.9 19 13.8 N 9 15 5 8 1013.0 1012.5 0.0
16/12:00pm 30.9 27.7 6.7 22 13.1 WSW 13 26 7 14 1013.2 1012.7 0.0
16/11:30am 30.7 28.1 7.8 24 12.6 ENE 11 19 6 10 1013.4 1012.9 0.0
16/11:00am 29.8 28.6 6.5 23 12.5 NW 2 11 1 6 1013.5 1013.0 0.0
16/10:30am 28.4 26.8 8.1 28 11.1 NE 6 13 3 7 1013.6 1013.1 0.0
16/10:00am 27.2 26.1 8.6 31 10.2 ENE 4 11 2 6 1013.8 1013.3 0.0
16/09:30am 25.4 24.2 9.7 37 8.7 ENE 6 13 3 7 1013.7 1013.2 0.0
16/09:00am 23.6 23.7 12.6 50 6.3 NE 4 9 2 5 1013.8 1013.3 0.0
16/08:30am 21.4 22.1 12.3 56 5.2 CALM 0 6 0 3 1013.8 1013.3 0.0
16/08:00am 19.8 20.5 12.1 61 4.3 CALM 0 4 0 2 1013.4 1012.9 0.0
16/07:30am 19.0 19.5 11.6 62 4.1 CALM 0 0 0 0 1013.2 1012.7 0.0
16/07:00am 17.3 16.7 12.2 72 2.8 SSE 7 9 4 5 1012.7 1012.2 0.0
16/06:30am 16.0 15.7 12.6 80 1.9 SSE 6 7 3 4 1012.3 1011.8 0.0
16/06:00am 15.0 14.8 12.9 87 1.2 S 6 7 3 4 1012.0 1011.5 0.0
16/05:30am 15.5 15.1 12.3 81 1.8 SSE 6 7 3 4 1011.5 1011.1 0.0
16/05:00am 15.5 15.2 12.6 83 1.6 SSE 6 7 3 4 1011.1 1010.6 0.0
16/04:30am 15.1 14.7 13.1 88 1.1 S 7 11 4 6 1010.8 1010.3 0.0
16/04:00am 14.7 15.1 12.4 86 1.3 SSW 2 9 1 5 1010.4 1009.9 0.0
16/03:30am 15.1 15.8 12.2 83 1.6 CALM 0 0 0 0 1010.5 1010.0 0.0
16/03:00am 14.8 14.2 11.8 82 1.6 SSW 6 7 3 4 1010.3 1009.8 0.0
16/02:30am 16.1 16.3 11.9 76 2.3 SSE 2 7 1 4 1010.4 1009.9 0.0
16/02:00am 17.0 16.0 12.3 74 2.6 S 9 9 5 5 1010.5 1010.0 0.0
16/01:30am 17.2 17.0 13.1 77 2.3 S 6 7 3 4 1010.5 1010.0 0.0
16/01:00am 16.4 15.8 12.4 77 2.2 SW 7 9 4 5 1010.5 1010.0 0.0
16/12:30am 17.9 18.5 11.9 68 3.3 CALM 0 0 0 0 1010.5 1010.0 0.0
16/12:00am 18.9 19.0 12.6 67 3.6 E 4 6 2 3 1010.5 1010.0 0.0
 
Date/Time
EDT
Temp
°C
App
Temp
°C
Dew
Point
°C
Rel
Hum
%
Delta-T
°C
Wind Press
QNH
hPa
Press
MSL
hPa
Rain since
9am
mm
Dir  Spd
km/h
Gust
km/h
Spd
kts
Gust
kts
15/11:30pm 19.5 18.6 11.3 59 4.5 E 7 9 4 5 1010.6 1010.1 0.0
15/11:00pm 20.5 20.2 11.4 56 5.1 SSE 4 9 2 5 1010.5 1010.0 0.0
15/10:30pm 21.0 21.8 12.4 58 4.9 CALM 0 0 0 0 1010.3 1009.8 0.0
15/10:00pm 23.2 23.2 9.9 43 7.3 CALM 0 0 0 0 1010.0 1009.5 0.0
15/09:30pm 23.9 22.8 10.6 43 7.4 SW 7 9 4 5 1009.9 1009.4 0.0
15/09:00pm 24.5 22.7 9.6 39 8.2 SW 9 9 5 5 1009.6 1009.1 0.0
15/08:30pm 26.0 23.7 8.9 34 9.4 WSW 11 15 6 8 1009.3 1008.8 0.0
15/08:00pm 28.5 26.0 8.2 28 11.1 W 11 15 6 8 1009.0 1008.5 0.0
15/07:30pm 30.2 26.4 7.4 24 12.4 W 17 24 9 13 1008.7 1008.2 0.0
15/07:00pm 30.5 26.4 7.7 24 12.5 WNW 19 26 10 14 1008.4 1007.9 0.0
15/06:30pm 31.1 26.9 7.5 23 13.0 WNW 19 24 10 13 1008.3 1007.8 0.0
15/06:00pm 31.7 27.8 8.7 24 12.9 W 19 33 10 18 1008.4 1007.9 0.0
15/05:30pm 31.4 26.3 7.8 23 13.0 WNW 24 35 13 19 1008.4 1007.9 0.0
15/05:00pm 31.9 26.8 7.5 22 13.5 WNW 24 32 13 17 1008.4 1007.9 0.0
15/04:30pm 32.2 27.0 7.1 21 13.8 W 24 37 13 20 1008.6 1008.1 0.0
15/04:00pm 31.7 26.2 7.4 22 13.4 WNW 26 37 14 20 1008.8 1008.3 0.0
15/03:30pm 31.9 27.6 9.4 25 12.8 W 22 37 12 20 1009.0 1008.5 0.0
15/03:00pm 31.7 27.8 8.7 24 12.9 WNW 19 30 10 16 1009.3 1008.8 0.0
15/02:30pm 30.9 25.4 6.0 21 13.3 W 24 43 13 23 1009.6 1009.1 0.0
15/02:00pm 30.6 25.2 6.5 22 13.0 WNW 24 33 13 18 1009.8 1009.3 0.0
15/01:30pm 29.8 25.4 6.5 23 12.5 NW 19 33 10 18 1010.1 1009.6 0.0
15/01:00pm 30.7 27.0 7.8 24 12.6 NW 17 30 9 16 1010.4 1009.9 0.0
15/12:30pm 30.3 27.1 9.8 28 11.6 W 17 24 9 13 1010.5 1010.0 0.0
15/12:00pm 28.9 26.5 8.6 28 11.2 WNW 11 19 6 10 1010.7 1010.2 0.0
15/11:30am 28.4 25.3 8.7 29 10.9 WSW 15 24 8 13 1010.8 1010.3 0.0
15/11:00am 28.4 25.1 9.6 31 10.6 W 17 22 9 12 1010.9 1010.4 0.0
15/10:30am 27.5 26.2 11.1 36 9.4 W 9 17 5 9 1010.9 1010.4 0.0
15/10:00am 26.1 25.3 11.8 41 8.2 SW 7 15 4 8 1011.1 1010.6 0.0
15/09:30am 25.0 25.0 14.2 51 6.4 SSW 7 15 4 8 1011.2 1010.7 0.0
15/09:00am 24.0 24.2 14.7 56 5.6 SE 7 9 4 5 1011.3 1010.8 0.0
15/08:30am 22.3 22.4 13.9 59 4.9 SE 6 13 3 7 1011.1 1010.6 0.0
15/08:00am 21.0 20.5 13.9 64 4.1 S 9 13 5 7 1011.0 1010.5 0.0
15/07:30am 19.0 18.5 13.8 72 3.0 S 9 11 5 6 1010.9 1010.4 0.0
15/07:00am 16.9 18.3 14.5 86 1.4 CALM 0 0 0 0 1010.4 1009.9 0.0
15/06:30am 15.1 14.5 12.2 83 1.6 SSW 7 9 4 5 1010.1 1009.6 0.0
15/06:00am 15.3 14.8 12.6 84 1.5 SSE 7 9 4 5 1009.8 1009.3 0.0
15/05:30am 16.8 17.8 13.3 80 2.0 CALM 0 0 0 0 1009.6 1009.1 0.0
15/05:00am 17.0 18.0 13.3 79 2.1 CALM 0 0 0 0 1009.5 1009.0 0.0
15/04:30am 17.7 18.8 13.6 77 2.3 CALM 0 0 0 0 1009.1 1008.6 0.0
15/04:00am 17.5 18.3 13.8 79 2.1 SSE 2 7 1 4 1009.0 1008.5 0.0
15/03:30am 17.8 18.3 14.9 83 1.7 WSW 6 7 3 4 1008.7 1008.2 0.0
15/03:00am 18.0 17.9 14.9 82 1.8 SW 9 9 5 5 1008.6 1008.1 0.0
15/02:30am 17.0 16.8 14.6 86 1.4 SW 9 11 5 6 1008.6 1008.1 0.0
15/02:00am 18.1 19.5 14.4 79 2.1 CALM 0 0 0 0 1008.9 1008.4 0.0
15/01:30am 19.8 21.4 14.8 73 2.9 CALM 0 0 0 0 1008.9 1008.4 0.0
15/01:00am 19.1 18.8 14.4 74 2.7 SSW 9 9 5 5 1008.7 1008.2 0.0
15/12:30am 21.6 21.8 14.7 65 4.1 S 7 9 4 5 1008.7 1008.2 0.0
15/12:00am 22.0 21.0 14.6 63 4.4 SSW 13 15 7 8 1009.0 1008.5 0.0
 
Date/Time
EDT
Temp
°C
App
Temp
°C
Dew
Point
°C
Rel
Hum
%
Delta-T
°C
Wind Press
QNH
hPa
Press
MSL
hPa
Rain since
9am
mm
Dir  Spd
km/h
Gust
km/h
Spd
kts
Gust
kts
14/11:30pm 22.3 21.9 15.2 64 4.3 SSW 11 15 6 8 1009.1 1008.6 0.0

Other Formats:

Comma delimited format used in spreadsheet applications
http://www.bom.gov.au/fwo/IDV60801/IDV60801.94889.axf

JavaScript Object Notation format (JSON) in row-major order
http://www.bom.gov.au/fwo/IDV60801/IDV60801.94889.json